Time;durP1;ratioP1;P1;durP2;ratioP2;P2;SDS_P1;SDS_P2;PMS_P1;PMS_P2;Temp;Humidity;BMP_temperature;BMP_pressure;BME280_temperature;BME280_humidity;BME280_pressure;Samples;Min_cycle;Max_cycle;Signal;HPM_P1;HPM_P2
2023/04/28 00:01:21;;;;;;;2.78;2.33;;;15.60;73.50;;;;;;10848428;32;20011;-75
2023/04/28 00:07:23;;;;;;;2.90;2.10;;;15.50;73.70;;;;;;10848707;32;20046;-75
2023/04/28 00:13:25;;;;;;;3.17;2.42;;;15.40;73.80;;;;;;10862095;32;20020;-75
2023/04/28 00:19:27;;;;;;;5.18;3.30;;;15.50;74.20;;;;;;10867625;32;20020;-74
2023/04/28 00:25:30;;;;;;;3.65;2.55;;;15.60;75.30;;;;;;10868102;32;20091;-72
2023/04/28 00:31:34;;;;;;;3.78;2.67;;;15.50;75.20;;;;;;10867920;32;20046;-72
2023/04/28 00:37:37;;;;;;;5.93;3.87;;;15.50;74.90;;;;;;10867790;32;20024;-72
2023/04/28 00:43:47;;;;;;;3.92;3.05;;;15.50;74.80;;;;;;10838667;32;20035;-72
2023/04/28 00:49:49;;;;;;;5.70;4.40;;;15.50;74.50;;;;;;10853002;32;20063;-72
2023/04/28 00:55:53;;;;;;;3.45;2.72;;;15.40;74.30;;;;;;10866689;32;20038;-74
2023/04/28 01:01:56;;;;;;;4.00;2.92;;;15.40;74.80;;;;;;10865736;32;20020;-74
2023/04/28 01:07:58;;;;;;;3.47;2.72;;;15.40;74.90;;;;;;10866891;32;20047;-74
2023/04/28 01:14:00;;;;;;;4.15;3.12;;;15.30;74.90;;;;;;10866413;32;20058;-74
2023/04/28 01:20:03;;;;;;;4.68;2.78;;;15.20;75.10;;;;;;10865288;32;20327;-74
2023/04/28 01:26:05;;;;;;;4.60;3.20;;;15.10;75.20;;;;;;10866057;32;20015;-74
2023/04/28 01:32:08;;;;;;;4.28;2.50;;;15.10;74.80;;;;;;10864274;32;20058;-74
2023/04/28 01:38:10;;;;;;;4.90;3.28;;;15.00;74.90;;;;;;10865918;32;20016;-74
2023/04/28 01:44:12;;;;;;;5.05;4.00;;;14.90;75.20;;;;;;10865449;32;20057;-74
2023/04/28 01:50:15;;;;;;;3.97;3.05;;;14.80;75.20;;;;;;10864282;32;20020;-74
2023/04/28 01:56:18;;;;;;;6.25;2.58;;;14.90;75.30;;;;;;10865365;32;20043;-74
2023/04/28 02:02:20;;;;;;;7.97;5.00;;;14.80;75.30;;;;;;10860838;32;20012;-75
2023/04/28 02:08:22;;;;;;;6.65;4.25;;;14.70;75.40;;;;;;10863949;32;20053;-74
2023/04/28 02:14:26;;;;;;;3.47;2.37;;;14.80;75.60;;;;;;10850647;32;20046;-74
2023/04/28 02:20:29;;;;;;;5.95;3.10;;;14.70;75.50;;;;;;10852180;32;20428;-74
2023/04/28 02:26:33;;;;;;;5.28;3.50;;;14.70;75.70;;;;;;10864011;32;20016;-74
2023/04/28 02:32:35;;;;;;;3.83;2.75;;;14.70;75.60;;;;;;10864243;32;20019;-74
2023/04/28 02:38:37;;;;;;;5.12;3.65;;;14.70;75.30;;;;;;10863363;32;20058;-74
2023/04/28 02:44:45;;;;;;;3.83;3.42;;;14.70;75.40;;;;;;10858909;32;20019;-74
2023/04/28 02:51:22;;;;;;;5.43;4.03;;;14.70;75.60;;;;;;10863118;32;20046;-74
2023/04/28 02:57:24;;;;;;;4.10;2.60;;;14.60;75.60;;;;;;10849080;32;20054;-74
2023/04/28 03:03:27;;;;;;;3.78;2.58;;;14.60;75.60;;;;;;10861595;32;20325;-74
2023/04/28 03:09:30;;;;;;;6.45;2.90;;;14.50;75.70;;;;;;10863343;32;20043;-74
2023/04/28 03:15:32;;;;;;;5.00;3.72;;;14.40;75.80;;;;;;10849736;32;20028;-74
2023/04/28 03:21:35;;;;;;;6.07;4.15;;;14.40;75.90;;;;;;10863545;32;20046;-74
2023/04/28 03:27:41;;;;;;;4.32;3.10;;;14.50;76.00;;;;;;10847928;32;20069;-74
2023/04/28 03:33:45;;;;;;;5.03;3.67;;;14.30;76.00;;;;;;10861460;32;20024;-74
2023/04/28 03:39:49;;;;;;;3.67;3.20;;;14.30;76.00;;;;;;10861451;32;20303;-74
2023/04/28 03:45:52;;;;;;;3.20;2.72;;;14.20;76.10;;;;;;10862122;32;20042;-74
2023/04/28 03:51:59;;;;;;;3.42;2.55;;;14.20;76.10;;;;;;10860940;32;20032;-74
2023/04/28 03:58:02;;;;;;;6.68;4.70;;;14.20;76.20;;;;;;10862122;32;20046;-74
2023/04/28 04:04:05;;;;;;;6.97;5.22;;;14.20;76.00;;;;;;10860137;32;20051;-74
2023/04/28 04:10:14;;;;;;;4.82;3.33;;;14.20;75.70;;;;;;10860673;32;20054;-74
2023/04/28 04:17:21;;;;;;;3.58;2.40;;;14.20;75.60;;;;;;10858347;32;20024;-74
2023/04/28 04:23:23;;;;;;;6.10;4.62;;;14.00;75.90;;;;;;10860850;32;20024;-74
2023/04/28 04:29:26;;;;;;;5.60;3.90;;;14.00;76.10;;;;;;10861808;32;20028;-74
2023/04/28 04:35:29;;;;;;;6.45;5.12;;;14.00;76.10;;;;;;10860515;32;20046;-74
2023/04/28 04:41:32;;;;;;;9.45;6.15;;;13.90;76.20;;;;;;10858968;32;20058;-74
2023/04/28 04:47:37;;;;;;;4.25;3.08;;;13.90;76.30;;;;;;10859643;32;20050;-74
2023/04/28 04:53:39;;;;;;;6.97;4.55;;;14.00;76.20;;;;;;10859462;32;20028;-74
2023/04/28 04:59:42;;;;;;;6.12;4.07;;;14.00;76.20;;;;;;10862740;32;20149;-71
2023/04/28 05:05:45;;;;;;;3.37;2.62;;;14.10;76.40;;;;;;10853684;32;20024;-72
2023/04/28 05:11:48;;;;;;;5.35;3.62;;;14.00;76.50;;;;;;10864086;32;20073;-72
2023/04/28 05:17:52;;;;;;;5.35;4.32;;;14.00;76.50;;;;;;10866708;32;20054;-72
2023/04/28 05:23:54;;;;;;;5.18;3.35;;;14.20;76.80;;;;;;10837295;32;20024;-72
2023/04/28 05:29:58;;;;;;;4.70;3.47;;;14.30;77.40;;;;;;10828852;33;20397;-72
2023/04/28 05:36:04;;;;;;;3.85;3.12;;;14.30;77.70;;;;;;10827752;33;20024;-72
2023/04/28 05:42:07;;;;;;;4.50;2.72;;;14.40;77.90;;;;;;10828204;33;20016;-71
2023/04/28 05:48:10;;;;;;;3.25;2.67;;;14.40;78.00;;;;;;10827391;33;20060;-71
2023/04/28 05:54:13;;;;;;;5.57;4.07;;;14.50;78.50;;;;;;10826896;33;20043;-71
2023/04/28 06:00:16;;;;;;;4.68;3.50;;;14.60;78.50;;;;;;10827117;33;20028;-72
2023/04/28 06:06:18;;;;;;;4.10;2.60;;;14.60;78.90;;;;;;10827174;33;20046;-72
2023/04/28 06:12:21;;;;;;;4.80;3.10;;;14.60;78.90;;;;;;10825695;32;20032;-71
2023/04/28 06:18:23;;;;;;;3.08;2.45;;;14.70;79.00;;;;;;10813913;33;20050;-71
2023/04/28 06:24:25;;;;;;;12.30;4.10;;;14.70;79.30;;;;;;10826792;33;20024;-71
2023/04/28 06:30:28;;;;;;;9.23;6.62;;;14.70;79.40;;;;;;10843439;32;20024;-73
2023/04/28 06:36:33;;;;;;;9.75;6.87;;;14.70;79.10;;;;;;10864392;32;20054;-73
2023/04/28 06:42:35;;;;;;;8.05;4.87;;;14.60;79.70;;;;;;10849071;32;20044;-71
2023/04/28 06:48:47;;;;;;;6.00;4.70;;;14.60;79.80;;;;;;10858430;32;20303;-71
2023/04/28 06:54:52;;;;;;;5.78;4.10;;;14.80;79.50;;;;;;10827204;32;20028;-72
2023/04/28 07:00:54;;;;;;;6.95;4.95;;;15.00;79.20;;;;;;10826066;33;20016;-72
2023/04/28 07:06:59;;;;;;;6.18;3.95;;;15.20;78.90;;;;;;10822210;33;20068;-71
2023/04/28 07:13:01;;;;;;;4.25;3.20;;;15.30;78.70;;;;;;10811546;33;20036;-72
2023/04/28 07:19:04;;;;;;;6.43;3.70;;;15.50;78.30;;;;;;10824813;33;20283;-72
2023/04/28 07:25:08;;;;;;;9.40;6.40;;;15.70;78.10;;;;;;10822947;33;20024;-72
2023/04/28 07:31:10;;;;;;;6.90;4.30;;;15.70;78.00;;;;;;10812107;33;20437;-73
2023/04/28 07:37:12;;;;;;;7.05;5.62;;;15.80;78.00;;;;;;10824020;33;20041;-73
2023/04/28 07:43:15;;;;;;;7.93;3.58;;;15.80;77.60;;;;;;10825320;33;20012;-72
2023/04/28 07:49:17;;;;;;;16.42;7.40;;;15.90;77.30;;;;;;10833117;27;20032;-72
2023/04/28 07:55:19;;;;;;;9.88;6.53;;;16.00;77.30;;;;;;10861862;32;20326;-71
2023/04/28 08:01:21;;;;;;;6.80;4.90;;;16.10;76.90;;;;;;10858917;32;20027;-73
2023/04/28 08:07:23;;;;;;;10.35;7.15;;;16.20;76.30;;;;;;10859733;32;20032;-73
2023/04/28 08:13:27;;;;;;;13.38;7.32;;;16.20;76.60;;;;;;10860763;32;20330;-73
2023/04/28 08:19:30;;;;;;;7.03;4.80;;;16.30;76.60;;;;;;10861658;32;20097;-73
2023/04/28 08:25:32;;;;;;;6.40;4.70;;;16.50;76.20;;;;;;10857695;32;20024;-72
2023/04/28 08:31:35;;;;;;;6.60;5.37;;;16.70;76.10;;;;;;10844798;32;20036;-71
2023/04/28 08:37:41;;;;;;;4.70;3.42;;;16.80;76.30;;;;;;10867780;32;20024;-73
2023/04/28 08:43:50;;;;;;;5.40;3.75;;;16.80;76.00;;;;;;10854228;32;20531;-72
2023/04/28 08:49:56;;;;;;;3.60;2.33;;;16.90;75.90;;;;;;10867078;32;20028;-72
2023/04/28 08:56:00;;;;;;;5.43;3.45;;;17.00;75.40;;;;;;10850128;32;20312;-72
2023/04/28 09:02:03;;;;;;;4.60;3.20;;;17.20;74.80;;;;;;10825453;32;20318;-72
2023/04/28 09:08:05;;;;;;;2.97;2.20;;;17.20;74.40;;;;;;10800245;32;20075;-73
2023/04/28 09:14:12;;;;;;;5.70;3.75;;;17.30;74.00;;;;;;10828866;32;20405;-74
2023/04/28 09:20:25;;;;;;;4.12;2.35;;;17.40;73.50;;;;;;10828898;33;20020;-74
2023/04/28 09:26:27;;;;;;;3.85;2.55;;;17.50;72.90;;;;;;10829184;33;20020;-73
2023/04/28 09:32:29;;;;;;;4.43;3.25;;;17.80;71.70;;;;;;10828978;33;20024;-74
2023/04/28 09:38:44;;;;;;;4.55;2.67;;;18.00;70.90;;;;;;10825088;33;20047;-74
2023/04/28 09:44:52;;;;;;;2.72;1.95;;;18.20;69.90;;;;;;10827941;32;20024;-74
2023/04/28 09:50:56;;;;;;;11.05;3.87;;;18.30;69.00;;;;;;10828103;33;20028;-74
2023/04/28 09:56:58;;;;;;;8.00;2.85;;;18.50;68.50;;;;;;10828242;33;20028;-75
2023/04/28 10:03:06;;;;;;;3.40;2.35;;;18.50;67.10;;;;;;10827639;33;20327;-73
2023/04/28 10:09:11;;;;;;;4.22;2.75;;;18.50;66.20;;;;;;10826210;33;20390;-73
2023/04/28 10:15:22;;;;;;;5.22;1.95;;;18.60;66.10;;;;;;10826311;33;20051;-73
2023/04/28 10:21:27;;;;;;;2.58;1.60;;;18.70;65.20;;;;;;10827409;33;20197;-73
2023/04/28 10:27:44;;;;;;;4.50;2.42;;;18.80;64.10;;;;;;10812335;33;20093;-74
2023/04/28 10:33:49;;;;;;;5.50;2.75;;;19.00;63.50;;;;;;10892467;32;20428;-74
2023/04/28 10:40:35;;;;;;;4.20;2.00;;;19.30;62.90;;;;;;10897301;32;20028;-73
2023/04/28 10:47:05;;;;;;;2.28;1.67;;;19.50;62.60;;;;;;10926192;32;20034;-74
2023/04/28 10:53:07;;;;;;;11.02;3.10;;;19.80;61.70;;;;;;11018275;32;20052;-74
2023/04/28 10:59:31;;;;;;;2.20;1.45;;;19.90;60.80;;;;;;11017262;32;20023;-73
2023/04/28 11:05:37;;;;;;;5.43;2.80;;;19.90;60.50;;;;;;11018769;32;20384;-74
2023/04/28 11:12:05;;;;;;;2.60;1.92;;;20.30;60.00;;;;;;11015392;32;20343;-74
2023/04/28 11:18:21;;;;;;;3.60;2.20;;;20.50;59.50;;;;;;11012592;32;20049;-74
2023/04/28 11:24:28;;;;;;;5.78;1.85;;;20.70;60.80;;;;;;11015292;32;20297;-73
2023/04/28 11:30:46;;;;;;;8.10;2.25;;;20.80;59.40;;;;;;11017008;32;20038;-74
2023/04/28 11:37:38;;;;;;;4.05;2.55;;;21.10;58.60;;;;;;10938559;32;20046;-74
2023/04/28 11:43:42;;;;;;;1.67;0.90;;;21.30;58.60;;;;;;10937969;32;20388;-74
2023/04/28 11:49:50;;;;;;;2.03;1.10;;;21.30;58.20;;;;;;10836937;32;20032;-74
2023/04/28 11:56:08;;;;;;;8.23;1.42;;;21.50;57.10;;;;;;10743322;33;20090;-73
2023/04/28 12:02:12;;;;;;;3.17;1.73;;;21.70;56.70;;;;;;10735510;33;20358;-74
2023/04/28 12:08:27;;;;;;;2.42;1.70;;;21.50;57.30;;;;;;10811866;32;20028;-74
2023/04/28 12:14:34;;;;;;;3.12;1.42;;;21.40;57.40;;;;;;10828026;33;20035;-74
2023/04/28 12:20:40;;;;;;;2.00;1.03;;;21.40;55.70;;;;;;10827508;33;20020;-74
2023/04/28 12:26:45;;;;;;;2.67;1.40;;;21.50;54.90;;;;;;10814118;33;20016;-74
2023/04/28 12:32:52;;;;;;;2.20;1.52;;;21.80;54.00;;;;;;10830839;33;20051;-74
2023/04/28 12:38:59;;;;;;;3.10;1.62;;;21.80;54.70;;;;;;10828192;33;20066;-75
2023/04/28 12:45:02;;;;;;;2.65;1.67;;;21.90;54.20;;;;;;10829126;33;20050;-74
2023/04/28 12:51:04;;;;;;;1.80;1.58;;;21.80;54.60;;;;;;10829416;32;20025;-74
2023/04/28 12:57:06;;;;;;;1.30;0.98;;;21.80;54.00;;;;;;10815444;33;20354;-74
2023/04/28 13:03:08;;;;;;;1.35;1.12;;;21.90;52.60;;;;;;10815130;33;20325;-74
2023/04/28 13:09:12;;;;;;;6.53;2.00;;;22.10;52.40;;;;;;10829805;33;20044;-74
2023/04/28 13:15:18;;;;;;;3.00;1.40;;;22.20;52.00;;;;;;10815537;33;20047;-73
2023/04/28 13:21:25;;;;;;;13.80;1.40;;;22.20;52.30;;;;;;10829204;32;20428;-74
2023/04/28 13:27:33;;;;;;;4.28;1.30;;;22.20;51.90;;;;;;10826775;33;20020;-74
2023/04/28 13:33:53;;;;;;;4.40;2.55;;;22.30;51.70;;;;;;10828805;33;20051;-74
2023/04/28 13:39:56;;;;;;;2.50;1.65;;;22.20;53.20;;;;;;10826592;33;20020;-74
2023/04/28 13:46:00;;;;;;;3.28;1.75;;;22.20;53.00;;;;;;10815563;33;20051;-74
2023/04/28 13:52:03;;;;;;;1.35;0.90;;;22.20;53.00;;;;;;10827610;33;20042;-74
2023/04/28 13:58:05;;;;;;;7.53;1.35;;;22.20;51.70;;;;;;10813971;33;20051;-74
2023/04/28 14:04:15;;;;;;;4.75;2.15;;;22.20;51.60;;;;;;10825319;32;20090;-74
2023/04/28 14:10:30;;;;;;;2.53;1.05;;;22.30;52.10;;;;;;10824314;33;20043;-74
2023/04/28 14:16:33;;;;;;;9.65;2.50;;;22.20;51.50;;;;;;10826671;32;20023;-73
2023/04/28 14:22:47;;;;;;;7.70;1.23;;;22.30;53.10;;;;;;10827870;33;20353;-73
2023/04/28 14:29:17;;;;;;;6.15;1.52;;;22.30;51.80;;;;;;10861155;32;20023;-74
2023/04/28 14:35:22;;;;;;;2.85;1.25;;;22.30;50.30;;;;;;10887834;32;20050;-72
2023/04/28 14:41:27;;;;;;;1.40;0.90;;;22.30;49.90;;;;;;10901753;32;20015;-73
2023/04/28 14:47:37;;;;;;;2.03;1.20;;;22.60;49.30;;;;;;10901379;32;20041;-74
2023/04/28 14:53:41;;;;;;;2.20;0.95;;;22.80;48.90;;;;;;10883035;32;20054;-74
2023/04/28 14:59:45;;;;;;;1.83;1.05;;;22.80;49.10;;;;;;10897384;32;20031;-74
2023/04/28 15:05:48;;;;;;;2.37;1.40;;;23.00;49.40;;;;;;10886171;32;20023;-75
2023/04/28 15:11:50;;;;;;;4.50;1.20;;;22.90;48.90;;;;;;10886127;32;20027;-74
2023/04/28 15:17:59;;;;;;;3.12;1.80;;;22.80;51.30;;;;;;10897167;32;20020;-74
2023/04/28 15:24:38;;;;;;;3.85;2.05;;;22.70;50.30;;;;;;10885974;32;20042;-74
2023/04/28 15:30:44;;;;;;;5.87;3.35;;;22.70;50.10;;;;;;10899512;32;20015;-74
2023/04/28 15:36:47;;;;;;;15.95;12.27;;;22.70;50.20;;;;;;10862638;32;20046;-74
2023/04/28 15:42:51;;;;;;;9.30;4.07;;;22.70;49.60;;;;;;10844128;32;20028;-74
2023/04/28 15:49:01;;;;;;;6.20;3.89;;;22.70;52.10;;;;;;10544731;27;10558373;-74
2023/04/28 15:55:03;;;;;;;3.58;2.03;;;22.60;52.80;;;;;;10823278;33;20051;-74
2023/04/28 16:01:08;;;;;;;4.97;2.40;;;22.30;54.90;;;;;;10871353;32;20079;-74
2023/04/28 16:07:10;;;;;;;4.30;1.20;;;22.30;54.10;;;;;;10821937;33;20023;-74
2023/04/28 16:13:12;;;;;;;3.45;2.37;;;22.40;53.50;;;;;;10824146;33;20024;-74
2023/04/28 16:19:14;;;;;;;4.55;2.33;;;22.60;52.50;;;;;;10823981;33;20295;-74
2023/04/28 16:25:17;;;;;;;3.55;2.33;;;22.40;52.30;;;;;;10871640;32;20062;-74
2023/04/28 16:31:22;;;;;;;33.42;17.17;;;22.40;52.20;;;;;;10820959;33;20054;-74
2023/04/28 16:37:26;;;;;;;20.45;15.65;;;22.20;52.90;;;;;;10824193;33;20390;-73
2023/04/28 16:43:28;;;;;;;14.52;8.98;;;22.20;52.50;;;;;;10874291;32;20016;-74
2023/04/28 16:49:30;;;;;;;14.82;11.27;;;22.30;52.30;;;;;;10861226;32;20032;-74
2023/04/28 16:55:35;;;;;;;11.23;8.25;;;22.20;52.80;;;;;;10826681;32;20054;-74
2023/04/28 17:01:37;;;;;;;14.48;9.48;;;22.20;53.90;;;;;;10829910;33;20039;-73
2023/04/28 17:07:47;;;;;;;11.10;7.75;;;22.00;55.20;;;;;;10829219;33;20035;-74
2023/04/28 17:13:50;;;;;;;25.00;18.12;;;21.80;56.30;;;;;;10829151;33;20021;-73
2023/04/28 17:19:52;;;;;;;10.27;6.25;;;21.60;56.30;;;;;;10829700;33;20015;-73
2023/04/28 17:25:55;;;;;;;12.37;8.27;;;21.40;56.90;;;;;;10827038;33;20032;-73
2023/04/28 17:31:59;;;;;;;16.77;12.93;;;21.40;57.30;;;;;;10879860;32;20028;-73
2023/04/28 17:38:01;;;;;;;22.20;15.95;;;21.30;57.40;;;;;;10829156;33;20473;-74
2023/04/28 17:44:08;;;;;;;28.75;21.05;;;21.20;57.70;;;;;;10828449;33;20046;-74
2023/04/28 17:50:22;;;;;;;19.45;13.18;;;21.00;59.50;;;;;;10828108;33;20028;-74
2023/04/28 17:56:25;;;;;;;23.87;16.15;;;20.90;59.60;;;;;;10825337;33;20047;-74
2023/04/28 18:02:31;;;;;;;39.63;31.20;;;20.80;59.70;;;;;;10827642;33;20028;-74
2023/04/28 18:08:34;;;;;;;28.55;22.50;;;20.70;59.80;;;;;;10853436;32;20048;-74
2023/04/28 18:14:36;;;;;;;31.92;21.48;;;20.50;61.40;;;;;;10786911;33;20327;-74
2023/04/28 18:20:42;;;;;;;23.58;19.02;;;20.20;62.20;;;;;;10781758;33;20051;-74
2023/04/28 18:26:51;;;;;;;37.10;19.50;;;20.00;62.60;;;;;;10866566;32;20047;-74
2023/04/28 18:32:53;;;;;;;80.60;59.03;;;19.90;63.20;;;;;;10822549;33;20381;-73
2023/04/28 18:38:56;;;;;;;33.10;22.27;;;19.80;64.10;;;;;;10869214;32;20024;-74
2023/04/28 18:44:58;;;;;;;66.22;43.70;;;19.70;65.00;;;;;;10873304;32;20386;-73
2023/04/28 18:51:01;;;;;;;31.08;21.45;;;19.70;65.40;;;;;;10821952;33;20054;-74
2023/04/28 18:57:04;;;;;;;18.35;13.18;;;19.60;65.90;;;;;;10821709;33;20390;-75
2023/04/28 19:03:06;;;;;;;20.62;13.50;;;19.50;66.60;;;;;;10871890;32;20417;-74
2023/04/28 19:09:08;;;;;;;19.80;13.85;;;19.50;66.90;;;;;;10872019;32;20440;-74
2023/04/28 19:15:10;;;;;;;14.05;8.80;;;19.50;67.60;;;;;;10826570;32;20028;-74
2023/04/28 19:21:12;;;;;;;13.93;8.73;;;19.40;68.20;;;;;;10825637;33;20016;-74
2023/04/28 19:27:15;;;;;;;12.77;6.43;;;19.30;68.30;;;;;;10825502;33;20054;-75
2023/04/28 19:33:42;;;;;;;7.47;5.43;;;19.20;69.30;;;;;;10875895;32;20035;-75
2023/04/28 19:39:44;;;;;;;8.65;5.03;;;19.20;69.20;;;;;;10823920;33;20020;-75
2023/04/28 19:45:47;;;;;;;8.98;5.03;;;19.20;69.40;;;;;;10825061;33;20008;-75
2023/04/28 19:51:54;;;;;;;8.95;4.87;;;19.10;70.10;;;;;;10824340;33;20327;-75
2023/04/28 19:58:01;;;;;;;8.07;4.12;;;19.00;70.60;;;;;;10824218;33;20020;-74
2023/04/28 20:04:05;;;;;;;4.70;3.70;;;18.80;71.60;;;;;;10824938;33;20020;-74
2023/04/28 20:10:08;;;;;;;7.12;3.95;;;18.70;72.30;;;;;;10820810;33;20028;-74
2023/04/28 20:16:10;;;;;;;5.57;2.70;;;18.70;72.20;;;;;;10824031;33;20046;-74
2023/04/28 20:22:12;;;;;;;10.13;3.12;;;18.70;71.90;;;;;;10823498;33;20106;-74
2023/04/28 20:28:16;;;;;;;3.97;3.08;;;18.70;72.20;;;;;;10825906;32;20020;-74
2023/04/28 20:34:21;;;;;;;4.15;2.87;;;18.70;72.20;;;;;;10880574;32;20043;-74
2023/04/28 20:40:23;;;;;;;2.83;2.33;;;18.70;72.00;;;;;;10880932;32;20058;-74
2023/04/28 20:46:26;;;;;;;4.15;3.17;;;18.60;72.00;;;;;;10828599;33;20421;-74
2023/04/28 20:52:30;;;;;;;6.60;3.53;;;18.50;72.00;;;;;;10829744;33;20342;-74
2023/04/28 20:58:36;;;;;;;4.07;2.72;;;18.40;72.20;;;;;;10876386;32;20424;-74
2023/04/28 21:04:41;;;;;;;4.78;3.20;;;18.30;72.20;;;;;;10829610;33;20020;-74
2023/04/28 21:10:44;;;;;;;5.12;3.62;;;18.30;72.30;;;;;;10825455;33;20051;-74
2023/04/28 21:17:05;;;;;;;4.95;3.62;;;18.30;72.30;;;;;;10828349;33;20406;-74
2023/04/28 21:23:12;;;;;;;6.72;4.45;;;18.20;73.10;;;;;;10829719;33;20051;-74
2023/04/28 21:29:21;;;;;;;5.03;3.35;;;18.10;73.00;;;;;;10829615;33;20428;-74
2023/04/28 21:35:25;;;;;;;3.85;3.40;;;18.00;73.30;;;;;;10829250;33;20024;-74
2023/04/28 21:41:43;;;;;;;7.20;4.87;;;18.00;73.70;;;;;;10828671;32;20020;-75
2023/04/28 21:47:46;;;;;;;8.70;5.25;;;18.00;74.10;;;;;;10824439;33;20020;-74
2023/04/28 21:53:47;;;;;;;5.80;4.07;;;18.00;74.20;;;;;;10827580;33;20019;-74
2023/04/28 21:59:50;;;;;;;7.18;5.57;;;18.00;73.80;;;;;;10828618;33;20399;-74
2023/04/28 22:05:54;;;;;;;6.65;4.10;;;17.90;74.00;;;;;;10828477;33;20371;-74
2023/04/28 22:11:59;;;;;;;4.75;3.30;;;17.80;74.00;;;;;;10861940;32;20035;-74
2023/04/28 22:18:04;;;;;;;4.40;3.30;;;17.70;74.00;;;;;;10877551;32;20127;-74
2023/04/28 22:24:07;;;;;;;6.03;4.18;;;17.70;74.10;;;;;;10878231;32;20043;-74
2023/04/28 22:37:11;;;;;;;6.05;4.65;;;17.60;74.10;;;;;;10826215;33;20055;-74
2023/04/28 22:43:13;;;;;;;8.20;5.20;;;17.60;74.40;;;;;;10877699;32;20334;-74
2023/04/28 22:50:06;;;;;;;8.98;7.22;;;17.50;74.40;;;;;;10877372;32;20024;-74
2023/04/28 22:56:08;;;;;;;7.55;5.30;;;17.50;74.60;;;;;;10876795;32;20027;-74
2023/04/28 23:02:12;;;;;;;8.02;5.55;;;17.50;74.60;;;;;;10826109;33;20405;-74
2023/04/28 23:08:14;;;;;;;9.15;6.62;;;17.30;74.60;;;;;;10876121;32;20047;-74
2023/04/28 23:14:16;;;;;;;7.07;4.65;;;17.30;74.70;;;;;;10874333;32;20051;-74
2023/04/28 23:20:21;;;;;;;7.12;5.25;;;17.30;74.80;;;;;;10826246;33;20012;-73
2023/04/28 23:26:25;;;;;;;6.05;4.25;;;17.20;75.70;;;;;;10826642;33;20024;-74
2023/04/28 23:32:28;;;;;;;5.10;3.92;;;17.20;75.80;;;;;;10825776;33;20020;-74
2023/04/28 23:38:31;;;;;;;12.90;6.03;;;17.20;75.50;;;;;;10824686;33;20020;-74
2023/04/28 23:44:34;;;;;;;8.77;6.80;;;17.20;75.50;;;;;;10822770;33;20038;-74
2023/04/28 23:50:36;;;;;;;7.62;5.62;;;17.20;75.80;;;;;;10840979;27;20027;-74
2023/04/28 23:56:39;;;;;;;8.15;6.18;;;17.10;76.00;;;;;;10847358;32;20115;-74
